AIB1 KJFK-HECA
Flight info
| Callsign | AIB1 |
|---|---|
| Flight time | N/A |
| Altitude | 33000 |
| Route | DEEZZ6 HEERO DCT MERIT DCT HFD DCT FRIAR J49 BGR DCT MIILS N785A JANJO/M082F350 NATW NETKI/N0475F370 DCT LIFFY UL975 WAL M16 DOLAS L603 LAMSO DCT EVELI DCT LARET DCT LASTO DCT TABAT DCT AKOSI DCT SIMBA DCT KUSIB DCT TAZ/N0477F390 DCT RODON DCT PINDO DCT KUMBI L612 BLT A16 CVO |
| Aircraft | A339/H-SADE1E2E3GHIJ1J3J5M1P2RWXY/LB2D1 |
Departure
| Time | N/A |
|---|---|
| Airport | John F. Kennedy International Airport (KJFK) |
Arrival
| Time | 2026-05-01 13:42 |
|---|---|
| Airport | Cairo International Airport (HECA) |
| Time | Latitude | Longitude | Altitude | Speed | Heading |
|---|---|---|---|---|---|
| 2026-05-01 13:14 | 32.18402 | 30.42822 | 38970 ft | 532 kts | 141° |
| 2026-05-01 13:15 | 32.12901 | 30.48700 | 38970 ft | 532 kts | 141° |
| 2026-05-01 13:15 | 32.07441 | 30.54521 | 38981 ft | 532 kts | 141° |
| 2026-05-01 13:16 | 32.01941 | 30.60376 | 38978 ft | 532 kts | 141° |
| 2026-05-01 13:16 | 31.96436 | 30.66231 | 38972 ft | 533 kts | 142° |
| 2026-05-01 13:17 | 31.85444 | 30.77893 | 38980 ft | 531 kts | 142° |
| 2026-05-01 13:18 | 31.77196 | 30.86616 | 38975 ft | 531 kts | 142° |
| 2026-05-01 13:18 | 31.71724 | 30.92396 | 38738 ft | 529 kts | 141° |
| 2026-05-01 13:19 | 31.68970 | 30.95301 | 38087 ft | 531 kts | 141° |
| 2026-05-01 13:19 | 31.66214 | 30.98207 | 37286 ft | 534 kts | 141° |
| 2026-05-01 13:19 | 31.60686 | 31.04011 | 35810 ft | 536 kts | 143° |
| 2026-05-01 13:20 | 31.57785 | 31.06686 | 35110 ft | 532 kts | 148° |
| 2026-05-01 13:20 | 31.54675 | 31.09026 | 34330 ft | 530 kts | 154° |
| 2026-05-01 13:20 | 31.51391 | 31.10995 | 33505 ft | 528 kts | 160° |
| 2026-05-01 13:21 | 31.44457 | 31.13747 | 31938 ft | 521 kts | 172° |
| 2026-05-01 13:21 | 31.40947 | 31.14538 | 31036 ft | 515 kts | 176° |
| 2026-05-01 13:21 | 31.37395 | 31.15195 | 29753 ft | 516 kts | 176° |
| 2026-05-01 13:21 | 31.33899 | 31.15814 | 28666 ft | 511 kts | 176° |
| 2026-05-01 13:22 | 31.30384 | 31.16451 | 28002 ft | 498 kts | 175° |
| 2026-05-01 13:22 | 31.27027 | 31.17075 | 27418 ft | 487 kts | 175° |
| 2026-05-01 13:22 | 31.23698 | 31.17700 | 27036 ft | 480 kts | 175° |
| 2026-05-01 13:22 | 31.20419 | 31.18310 | 26509 ft | 478 kts | 175° |
| 2026-05-01 13:23 | 31.17124 | 31.18918 | 26035 ft | 475 kts | 175° |
| 2026-05-01 13:23 | 31.13863 | 31.19521 | 25527 ft | 472 kts | 175° |
| 2026-05-01 13:23 | 31.10633 | 31.20119 | 25013 ft | 469 kts | 175° |
| 2026-05-01 13:23 | 31.07446 | 31.20711 | 24549 ft | 466 kts | 175° |
| 2026-05-01 13:24 | 31.04236 | 31.21307 | 24087 ft | 462 kts | 175° |
| 2026-05-01 13:24 | 31.01087 | 31.21894 | 23645 ft | 458 kts | 175° |
| 2026-05-01 13:24 | 30.97970 | 31.22472 | 23218 ft | 454 kts | 175° |
| 2026-05-01 13:25 | 30.91776 | 31.23623 | 22344 ft | 447 kts | 175° |
| 2026-05-01 13:25 | 30.88672 | 31.24198 | 21912 ft | 444 kts | 175° |
| 2026-05-01 13:25 | 30.85620 | 31.24766 | 21483 ft | 440 kts | 175° |
| 2026-05-01 13:25 | 30.82615 | 31.25322 | 21065 ft | 437 kts | 175° |
| 2026-05-01 13:26 | 30.79606 | 31.25879 | 20639 ft | 434 kts | 175° |
| 2026-05-01 13:26 | 30.76613 | 31.26434 | 20207 ft | 431 kts | 175° |
| 2026-05-01 13:26 | 30.73629 | 31.26985 | 19787 ft | 428 kts | 175° |
| 2026-05-01 13:26 | 30.70728 | 31.27520 | 19372 ft | 425 kts | 175° |
| 2026-05-01 13:27 | 30.67809 | 31.28060 | 18937 ft | 423 kts | 175° |
| 2026-05-01 13:27 | 30.64898 | 31.28599 | 18557 ft | 418 kts | 175° |
| 2026-05-01 13:27 | 30.59228 | 31.29646 | 17884 ft | 407 kts | 174° |
| 2026-05-01 13:28 | 30.53752 | 31.30701 | 17139 ft | 382 kts | 174° |
| 2026-05-01 13:28 | 30.51168 | 31.31215 | 16734 ft | 366 kts | 174° |
| 2026-05-01 13:29 | 30.46410 | 31.31646 | 16016 ft | 326 kts | 199° |
| 2026-05-01 13:29 | 30.42645 | 31.29133 | 15394 ft | 308 kts | 223° |
| 2026-05-01 13:30 | 30.36097 | 31.22990 | 13074 ft | 299 kts | 224° |
| 2026-05-01 13:31 | 30.32913 | 31.19970 | 11848 ft | 295 kts | 225° |
| 2026-05-01 13:31 | 30.28220 | 31.15473 | 10022 ft | 290 kts | 225° |
| 2026-05-01 13:32 | 30.25247 | 31.12399 | 8827 ft | 288 kts | 225° |
| 2026-05-01 13:33 | 30.20184 | 31.08899 | 7076 ft | 296 kts | 182° |
| 2026-05-01 13:33 | 30.16138 | 31.09793 | 5995 ft | 294 kts | 165° |
| 2026-05-01 13:34 | 30.12226 | 31.11041 | 5262 ft | 291 kts | 164° |
| 2026-05-01 13:34 | 30.08333 | 31.12276 | 4815 ft | 288 kts | 165° |
| 2026-05-01 13:35 | 30.04489 | 31.13501 | 4493 ft | 284 kts | 165° |
| 2026-05-01 13:35 | 30.02565 | 31.14119 | 4485 ft | 285 kts | 165° |
| 2026-05-01 13:35 | 29.98619 | 31.15382 | 3645 ft | 302 kts | 164° |
| 2026-05-01 13:36 | 29.96574 | 31.16032 | 3147 ft | 310 kts | 164° |
| 2026-05-01 13:36 | 29.94534 | 31.16852 | 2734 ft | 312 kts | 148° |
| 2026-05-01 13:36 | 29.92658 | 31.20734 | 2655 ft | 265 kts | 84° |
| 2026-05-01 13:37 | 29.93047 | 31.22737 | 2674 ft | 253 kts | 63° |
| 2026-05-01 13:37 | 29.93959 | 31.24402 | 2670 ft | 240 kts | 44° |
| 2026-05-01 13:37 | 29.95237 | 31.25585 | 2670 ft | 227 kts | 26° |
| 2026-05-01 13:37 | 29.96637 | 31.26280 | 2674 ft | 215 kts | 18° |
| 2026-05-01 13:38 | 29.99152 | 31.27810 | 2666 ft | 197 kts | 41° |
| 2026-05-01 13:38 | 30.00041 | 31.28953 | 2674 ft | 185 kts | 47° |
| 2026-05-01 13:38 | 30.00829 | 31.30061 | 2682 ft | 172 kts | 46° |
| 2026-05-01 13:39 | 30.01581 | 31.31102 | 2656 ft | 162 kts | 46° |
| 2026-05-01 13:39 | 30.02284 | 31.32053 | 2498 ft | 154 kts | 45° |
| 2026-05-01 13:39 | 30.02980 | 31.32978 | 2292 ft | 150 kts | 45° |
| 2026-05-01 13:39 | 30.03665 | 31.33881 | 2110 ft | 151 kts | 45° |
| 2026-05-01 13:40 | 30.04356 | 31.34794 | 1921 ft | 150 kts | 45° |
| 2026-05-01 13:40 | 30.05053 | 31.35717 | 1728 ft | 150 kts | 45° |
| 2026-05-01 13:40 | 30.05740 | 31.36630 | 1539 ft | 150 kts | 45° |
| 2026-05-01 13:40 | 30.06423 | 31.37534 | 1351 ft | 149 kts | 46° |
| 2026-05-01 13:41 | 30.07110 | 31.38447 | 1162 ft | 149 kts | 46° |
| 2026-05-01 13:41 | 30.07790 | 31.39350 | 975 ft | 150 kts | 46° |
| 2026-05-01 13:41 | 30.08483 | 31.40270 | 787 ft | 149 kts | 46° |
| 2026-05-01 13:41 | 30.09168 | 31.41178 | 597 ft | 149 kts | 46° |
| 2026-05-01 13:42 | 30.09860 | 31.42101 | 413 ft | 148 kts | 47° |
| 2026-05-01 13:42 | 30.10484 | 31.42926 | 399 ft | 113 kts | 48° |
| 2026-05-01 13:42 | 30.10896 | 31.43472 | 399 ft | 62 kts | 46° |
| 2026-05-01 13:42 | 30.11099 | 31.43746 | 399 ft | 39 kts | 48° |
| 2026-05-01 13:43 | 30.11293 | 31.43962 | 399 ft | 36 kts | 26° |
| 2026-05-01 13:43 | 30.11514 | 31.44073 | 399 ft | 27 kts | 23° |
| 2026-05-01 13:43 | 30.11588 | 31.44102 | 399 ft | 0 kts | 7° |
| 2026-05-01 13:43 | 30.11589 | 31.44102 | 399 ft | 0 kts | 7° |
| 2026-05-01 13:44 | 30.11602 | 31.44104 | 399 ft | 3 kts | 4° |
| 2026-05-01 13:44 | 30.11638 | 31.44097 | 399 ft | 7 kts | 347° |
| 2026-05-01 13:44 | 30.11667 | 31.44071 | 399 ft | 5 kts | 284° |
| 2026-05-01 13:44 | 30.11654 | 31.44021 | 399 ft | 8 kts | 231° |
| 2026-05-01 13:45 | 30.11607 | 31.43963 | 399 ft | 11 kts | 228° |
| 2026-05-01 13:45 | 30.11546 | 31.43881 | 399 ft | 14 kts | 230° |
| 2026-05-01 13:45 | 30.11473 | 31.43784 | 399 ft | 17 kts | 229° |
| 2026-05-01 13:45 | 30.11390 | 31.43672 | 399 ft | 19 kts | 228° |
| 2026-05-01 13:46 | 30.11298 | 31.43551 | 399 ft | 20 kts | 229° |
| 2026-05-01 13:46 | 30.11240 | 31.43464 | 399 ft | 5 kts | 252° |
| 2026-05-01 13:46 | 30.11255 | 31.43411 | 399 ft | 8 kts | 306° |
| 2026-05-01 13:46 | 30.11306 | 31.43360 | 399 ft | 11 kts | 321° |
| 2026-05-01 13:47 | 30.11375 | 31.43295 | 399 ft | 13 kts | 320° |
| 2026-05-01 13:47 | 30.11454 | 31.43216 | 399 ft | 16 kts | 319° |
| 2026-05-01 13:47 | 30.11544 | 31.43127 | 398 ft | 17 kts | 319° |
| 2026-05-01 13:47 | 30.11643 | 31.43029 | 398 ft | 19 kts | 318° |
| 2026-05-01 13:48 | 30.11748 | 31.42925 | 398 ft | 20 kts | 319° |
| 2026-05-01 13:48 | 30.11859 | 31.42814 | 398 ft | 21 kts | 319° |
| 2026-05-01 13:48 | 30.11977 | 31.42696 | 398 ft | 22 kts | 319° |
| 2026-05-01 13:48 | 30.12100 | 31.42575 | 398 ft | 23 kts | 319° |
| 2026-05-01 13:49 | 30.12205 | 31.42470 | 397 ft | 9 kts | 313° |
| 2026-05-01 13:49 | 30.12202 | 31.42393 | 397 ft | 11 kts | 234° |
| 2026-05-01 13:49 | 30.12139 | 31.42315 | 397 ft | 14 kts | 228° |
| 2026-05-01 13:49 | 30.12066 | 31.42217 | 397 ft | 17 kts | 229° |
| 2026-05-01 13:50 | 30.11981 | 31.42103 | 397 ft | 19 kts | 229° |
| 2026-05-01 13:50 | 30.11888 | 31.41979 | 397 ft | 21 kts | 229° |
| 2026-05-01 13:50 | 30.11788 | 31.41844 | 397 ft | 22 kts | 230° |
| 2026-05-01 13:50 | 30.11680 | 31.41701 | 397 ft | 23 kts | 228° |
| 2026-05-01 13:51 | 30.11575 | 31.41562 | 397 ft | 22 kts | 229° |
| 2026-05-01 13:51 | 30.11476 | 31.41430 | 397 ft | 21 kts | 229° |
| 2026-05-01 13:51 | 30.11418 | 31.41353 | 397 ft | 10 kts | 229° |
| 2026-05-01 13:51 | 30.11410 | 31.41281 | 397 ft | 10 kts | 308° |
| 2026-05-01 13:52 | 30.11464 | 31.41251 | 397 ft | 6 kts | 344° |
| 2026-05-01 13:52 | 30.11515 | 31.41232 | 397 ft | 8 kts | 342° |
| 2026-05-01 13:52 | 30.11574 | 31.41211 | 397 ft | 9 kts | 342° |
| 2026-05-01 13:52 | 30.11640 | 31.41188 | 397 ft | 10 kts | 343° |
| 2026-05-01 13:53 | 30.11710 | 31.41162 | 397 ft | 10 kts | 342° |
| 2026-05-01 13:53 | 30.11864 | 31.41106 | 396 ft | 12 kts | 342° |
| 2026-05-01 13:53 | 30.11943 | 31.41072 | 396 ft | 8 kts | 324° |
| 2026-05-01 13:54 | 30.11950 | 31.41052 | 396 ft | 1 kts | 279° |
| 2026-05-01 13:54 | 30.11950 | 31.41039 | 396 ft | 1 kts | 266° |
| 2026-05-01 13:54 | 30.11946 | 31.41020 | 396 ft | 3 kts | 251° |
| 2026-05-01 13:54 | 30.11937 | 31.40991 | 396 ft | 4 kts | 250° |
| 2026-05-01 13:55 | 30.11932 | 31.40972 | 396 ft | 0 kts | 253° |